KAMG

Details ICAO KAMG
Name BACON CO
Region United States
Timezone America/New_York (UTC-4.0)
Plans Departing 4
Arriving 2
Stats Elevation 200 ft / 61 m (AMSL)
Location 31.536057° -82.506553°
Runways 1
Magnetic Variation 6.124° W
Sunrise 2018-05-24 10:30:06 UTC / 2018-05-24 06:30:06 Local
Sunset 2018-05-25 00:26:32 UTC / 2018-05-24 20:26:32 Local
Advertisement - Login to hide

Runways

ID Width Length Bearing (true) Bearing (mag) Surface Threshold Offset Overrun Length
15 100 ft / 30 m 5,009 ft / 1,527 m 151.01° 157.13° Asphalt 0 ft / 0 m 0 ft / 0 m
33 100 ft / 30 m 5,009 ft / 1,527 m 331.01° 337.13° Asphalt 0 ft / 0 m 0 ft / 0 m

Map

Weather


0- 5 10 15 20 25 30 35+ Temperature / ° C

Clouds and Precipitation
Forecast for 2018-05-24 06:00 UTC. Updated 4 hours ago

Ground ~20,000 ft ~40,000 ft Winds

METAR

KAMG 240853Z AUTO 22003KT 10SM CLR 22/21 A3006 RMK AO2 SLP177 T02220206 55004

TAF

Not found

Frequencies

Recorded 118.32 MHz ASOS
Unicom 122.70 MHz CTAF/UNICOM
Warning: Do not use this data for real-world aviation or navigation. No guarantee of current accuracy is given.